sensor_id;sensor_type;location;lat;lon;timestamp;P1;durP1;ratioP1;P2;durP2;ratioP2
29500;SDS011;16450;50.288;10.966;2024-02-16T00:02:28;13.50;;;7.70;;
29500;SDS011;16450;50.288;10.966;2024-02-16T00:05:30;11.83;;;7.20;;
29500;SDS011;16450;50.288;10.966;2024-02-16T00:08:32;11.33;;;6.77;;
29500;SDS011;16450;50.288;10.966;2024-02-16T00:11:36;11.47;;;7.37;;
29500;SDS011;16450;50.288;10.966;2024-02-16T00:14:38;9.90;;;6.67;;
29500;SDS011;16450;50.288;10.966;2024-02-16T00:17:40;10.67;;;6.90;;
29500;SDS011;16450;50.288;10.966;2024-02-16T00:20:42;13.00;;;7.00;;
29500;SDS011;16450;50.288;10.966;2024-02-16T00:23:44;9.83;;;6.77;;
29500;SDS011;16450;50.288;10.966;2024-02-16T00:26:48;13.70;;;7.50;;
29500;SDS011;16450;50.288;10.966;2024-02-16T00:29:51;12.63;;;7.40;;
29500;SDS011;16450;50.288;10.966;2024-02-16T00:32:53;12.17;;;6.60;;
29500;SDS011;16450;50.288;10.966;2024-02-16T00:35:55;11.37;;;7.40;;
29500;SDS011;16450;50.288;10.966;2024-02-16T00:38:58;12.60;;;7.00;;
29500;SDS011;16450;50.288;10.966;2024-02-16T00:42:00;11.97;;;6.97;;
29500;SDS011;16450;50.288;10.966;2024-02-16T00:45:02;11.53;;;6.23;;
29500;SDS011;16450;50.288;10.966;2024-02-16T00:48:05;12.10;;;6.80;;
29500;SDS011;16450;50.288;10.966;2024-02-16T00:51:08;12.67;;;6.87;;
29500;SDS011;16450;50.288;10.966;2024-02-16T00:54:10;8.80;;;6.00;;
29500;SDS011;16450;50.288;10.966;2024-02-16T00:57:12;8.93;;;6.57;;
29500;SDS011;16450;50.288;10.966;2024-02-16T01:00:15;9.63;;;6.03;;
29500;SDS011;16450;50.288;10.966;2024-02-16T01:03:17;13.00;;;6.57;;
29500;SDS011;16450;50.288;10.966;2024-02-16T01:06:19;10.70;;;6.17;;
29500;SDS011;16450;50.288;10.966;2024-02-16T01:09:21;11.43;;;6.23;;
29500;SDS011;16450;50.288;10.966;2024-02-16T01:12:23;11.00;;;6.30;;
29500;SDS011;16450;50.288;10.966;2024-02-16T01:15:25;8.40;;;6.13;;
29500;SDS011;16450;50.288;10.966;2024-02-16T01:18:28;9.33;;;6.33;;
29500;SDS011;16450;50.288;10.966;2024-02-16T01:21:31;9.97;;;6.40;;
29500;SDS011;16450;50.288;10.966;2024-02-16T01:24:33;8.33;;;6.20;;
29500;SDS011;16450;50.288;10.966;2024-02-16T01:27:35;11.10;;;6.50;;
29500;SDS011;16450;50.288;10.966;2024-02-16T01:30:39;10.70;;;6.43;;
29500;SDS011;16450;50.288;10.966;2024-02-16T01:33:41;9.23;;;6.30;;
29500;SDS011;16450;50.288;10.966;2024-02-16T01:36:43;7.83;;;5.87;;
29500;SDS011;16450;50.288;10.966;2024-02-16T01:39:45;8.77;;;6.10;;
29500;SDS011;16450;50.288;10.966;2024-02-16T01:42:47;11.03;;;6.27;;
29500;SDS011;16450;50.288;10.966;2024-02-16T01:45:49;9.60;;;6.30;;
29500;SDS011;16450;50.288;10.966;2024-02-16T01:48:51;9.30;;;5.87;;
29500;SDS011;16450;50.288;10.966;2024-02-16T01:51:54;11.03;;;6.97;;
29500;SDS011;16450;50.288;10.966;2024-02-16T01:54:56;12.53;;;6.80;;
29500;SDS011;16450;50.288;10.966;2024-02-16T01:57:59;9.30;;;6.33;;
29500;SDS011;16450;50.288;10.966;2024-02-16T02:01:01;10.73;;;5.90;;
29500;SDS011;16450;50.288;10.966;2024-02-16T02:04:04;9.27;;;6.23;;
29500;SDS011;16450;50.288;10.966;2024-02-16T02:07:11;11.27;;;6.97;;
29500;SDS011;16450;50.288;10.966;2024-02-16T02:10:17;9.33;;;6.17;;
29500;SDS011;16450;50.288;10.966;2024-02-16T02:13:18;9.83;;;6.47;;
29500;SDS011;16450;50.288;10.966;2024-02-16T02:16:23;11.43;;;5.97;;
29500;SDS011;16450;50.288;10.966;2024-02-16T02:19:28;8.70;;;6.10;;
29500;SDS011;16450;50.288;10.966;2024-02-16T02:22:31;9.17;;;6.00;;
29500;SDS011;16450;50.288;10.966;2024-02-16T02:25:33;10.00;;;6.97;;
29500;SDS011;16450;50.288;10.966;2024-02-16T02:28:34;11.27;;;6.63;;
29500;SDS011;16450;50.288;10.966;2024-02-16T02:31:36;10.47;;;6.50;;
29500;SDS011;16450;50.288;10.966;2024-02-16T02:34:38;10.13;;;6.30;;
29500;SDS011;16450;50.288;10.966;2024-02-16T02:37:40;8.90;;;6.00;;
29500;SDS011;16450;50.288;10.966;2024-02-16T02:40:42;8.97;;;6.20;;
29500;SDS011;16450;50.288;10.966;2024-02-16T02:43:44;8.50;;;6.20;;
29500;SDS011;16450;50.288;10.966;2024-02-16T02:46:46;8.30;;;5.93;;
29500;SDS011;16450;50.288;10.966;2024-02-16T02:49:48;9.57;;;6.37;;
29500;SDS011;16450;50.288;10.966;2024-02-16T02:52:50;9.17;;;6.20;;
29500;SDS011;16450;50.288;10.966;2024-02-16T02:55:52;10.63;;;6.50;;
29500;SDS011;16450;50.288;10.966;2024-02-16T02:58:53;12.60;;;6.40;;
29500;SDS011;16450;50.288;10.966;2024-02-16T03:01:55;10.00;;;6.30;;
29500;SDS011;16450;50.288;10.966;2024-02-16T03:04:57;10.50;;;6.83;;
29500;SDS011;16450;50.288;10.966;2024-02-16T03:07:59;9.37;;;6.70;;
29500;SDS011;16450;50.288;10.966;2024-02-16T03:11:03;10.33;;;6.47;;
29500;SDS011;16450;50.288;10.966;2024-02-16T03:14:08;9.40;;;6.30;;
29500;SDS011;16450;50.288;10.966;2024-02-16T03:17:10;11.67;;;7.20;;
29500;SDS011;16450;50.288;10.966;2024-02-16T03:20:11;11.67;;;7.23;;
29500;SDS011;16450;50.288;10.966;2024-02-16T03:23:13;9.40;;;6.30;;
29500;SDS011;16450;50.288;10.966;2024-02-16T03:26:16;10.60;;;6.37;;
29500;SDS011;16450;50.288;10.966;2024-02-16T03:29:19;11.10;;;6.60;;
29500;SDS011;16450;50.288;10.966;2024-02-16T03:32:20;7.87;;;6.03;;
29500;SDS011;16450;50.288;10.966;2024-02-16T03:35:22;10.03;;;6.67;;
29500;SDS011;16450;50.288;10.966;2024-02-16T03:38:24;9.77;;;6.20;;
29500;SDS011;16450;50.288;10.966;2024-02-16T03:41:26;8.00;;;5.93;;
29500;SDS011;16450;50.288;10.966;2024-02-16T03:44:28;9.43;;;6.33;;
29500;SDS011;16450;50.288;10.966;2024-02-16T03:47:30;11.77;;;6.90;;
29500;SDS011;16450;50.288;10.966;2024-02-16T03:50:32;10.63;;;6.07;;
29500;SDS011;16450;50.288;10.966;2024-02-16T03:53:34;10.57;;;6.13;;
29500;SDS011;16450;50.288;10.966;2024-02-16T03:56:35;11.40;;;6.67;;
29500;SDS011;16450;50.288;10.966;2024-02-16T03:59:37;10.27;;;6.17;;
29500;SDS011;16450;50.288;10.966;2024-02-16T04:02:39;9.77;;;6.07;;
29500;SDS011;16450;50.288;10.966;2024-02-16T04:05:41;10.83;;;6.70;;
29500;SDS011;16450;50.288;10.966;2024-02-16T04:08:43;14.07;;;6.53;;
29500;SDS011;16450;50.288;10.966;2024-02-16T04:11:45;10.07;;;6.30;;
29500;SDS011;16450;50.288;10.966;2024-02-16T04:14:48;8.97;;;6.50;;
29500;SDS011;16450;50.288;10.966;2024-02-16T04:17:50;8.20;;;5.97;;
29500;SDS011;16450;50.288;10.966;2024-02-16T04:20:52;7.90;;;6.07;;
29500;SDS011;16450;50.288;10.966;2024-02-16T04:23:54;9.63;;;6.33;;
29500;SDS011;16450;50.288;10.966;2024-02-16T04:26:56;9.80;;;6.47;;
29500;SDS011;16450;50.288;10.966;2024-02-16T04:29:58;11.13;;;6.17;;
29500;SDS011;16450;50.288;10.966;2024-02-16T04:33:00;9.00;;;5.80;;
29500;SDS011;16450;50.288;10.966;2024-02-16T04:36:05;13.27;;;6.63;;
29500;SDS011;16450;50.288;10.966;2024-02-16T04:39:08;10.30;;;6.47;;
29500;SDS011;16450;50.288;10.966;2024-02-16T04:42:11;9.40;;;6.07;;
29500;SDS011;16450;50.288;10.966;2024-02-16T04:45:13;11.17;;;6.37;;
29500;SDS011;16450;50.288;10.966;2024-02-16T04:48:15;10.47;;;6.83;;
29500;SDS011;16450;50.288;10.966;2024-02-16T04:51:17;9.93;;;6.37;;
29500;SDS011;16450;50.288;10.966;2024-02-16T04:54:19;9.67;;;6.27;;
29500;SDS011;16450;50.288;10.966;2024-02-16T04:57:21;11.80;;;7.30;;
29500;SDS011;16450;50.288;10.966;2024-02-16T05:00:23;10.90;;;6.10;;
29500;SDS011;16450;50.288;10.966;2024-02-16T05:03:25;8.60;;;6.13;;
29500;SDS011;16450;50.288;10.966;2024-02-16T05:06:27;10.70;;;6.13;;
29500;SDS011;16450;50.288;10.966;2024-02-16T05:09:31;8.50;;;5.70;;
29500;SDS011;16450;50.288;10.966;2024-02-16T05:12:34;9.13;;;5.87;;
29500;SDS011;16450;50.288;10.966;2024-02-16T05:15:36;7.83;;;5.73;;
29500;SDS011;16450;50.288;10.966;2024-02-16T05:18:37;9.53;;;6.33;;
29500;SDS011;16450;50.288;10.966;2024-02-16T05:21:42;12.77;;;6.90;;
29500;SDS011;16450;50.288;10.966;2024-02-16T05:24:44;9.30;;;6.53;;
29500;SDS011;16450;50.288;10.966;2024-02-16T05:27:46;11.47;;;6.53;;
29500;SDS011;16450;50.288;10.966;2024-02-16T05:30:51;11.43;;;7.13;;
29500;SDS011;16450;50.288;10.966;2024-02-16T05:33:53;9.97;;;6.70;;
29500;SDS011;16450;50.288;10.966;2024-02-16T05:36:56;9.03;;;6.13;;
29500;SDS011;16450;50.288;10.966;2024-02-16T05:39:58;10.93;;;6.50;;
29500;SDS011;16450;50.288;10.966;2024-02-16T05:43:09;7.93;;;6.23;;
29500;SDS011;16450;50.288;10.966;2024-02-16T05:46:14;10.77;;;5.83;;
29500;SDS011;16450;50.288;10.966;2024-02-16T05:49:18;9.63;;;6.37;;
29500;SDS011;16450;50.288;10.966;2024-02-16T05:52:21;10.33;;;6.50;;
29500;SDS011;16450;50.288;10.966;2024-02-16T05:55:24;9.03;;;6.37;;
29500;SDS011;16450;50.288;10.966;2024-02-16T05:58:27;11.00;;;6.03;;
29500;SDS011;16450;50.288;10.966;2024-02-16T06:01:30;10.50;;;6.20;;
29500;SDS011;16450;50.288;10.966;2024-02-16T06:04:33;8.87;;;5.80;;
29500;SDS011;16450;50.288;10.966;2024-02-16T06:07:36;10.27;;;6.73;;
29500;SDS011;16450;50.288;10.966;2024-02-16T06:10:40;10.50;;;6.70;;
29500;SDS011;16450;50.288;10.966;2024-02-16T06:13:43;10.70;;;6.10;;
29500;SDS011;16450;50.288;10.966;2024-02-16T06:16:45;10.10;;;6.97;;
29500;SDS011;16450;50.288;10.966;2024-02-16T06:19:47;10.13;;;6.97;;
29500;SDS011;16450;50.288;10.966;2024-02-16T06:22:49;8.40;;;6.10;;
29500;SDS011;16450;50.288;10.966;2024-02-16T06:25:51;11.77;;;7.13;;
29500;SDS011;16450;50.288;10.966;2024-02-16T06:28:53;9.87;;;6.87;;
29500;SDS011;16450;50.288;10.966;2024-02-16T06:31:54;9.97;;;6.57;;
29500;SDS011;16450;50.288;10.966;2024-02-16T06:34:56;13.30;;;7.37;;
29500;SDS011;16450;50.288;10.966;2024-02-16T06:37:58;12.03;;;7.17;;
29500;SDS011;16450;50.288;10.966;2024-02-16T06:41:00;10.93;;;6.97;;
29500;SDS011;16450;50.288;10.966;2024-02-16T06:44:06;12.20;;;7.27;;
29500;SDS011;16450;50.288;10.966;2024-02-16T06:47:08;13.67;;;8.03;;
29500;SDS011;16450;50.288;10.966;2024-02-16T06:50:10;14.23;;;7.90;;
29500;SDS011;16450;50.288;10.966;2024-02-16T06:53:11;12.63;;;7.77;;
29500;SDS011;16450;50.288;10.966;2024-02-16T06:56:13;12.80;;;7.77;;
29500;SDS011;16450;50.288;10.966;2024-02-16T06:59:15;14.47;;;8.77;;
29500;SDS011;16450;50.288;10.966;2024-02-16T07:02:17;15.70;;;10.70;;
29500;SDS011;16450;50.288;10.966;2024-02-16T07:05:19;15.03;;;10.30;;
29500;SDS011;16450;50.288;10.966;2024-02-16T07:08:21;18.03;;;11.87;;
29500;SDS011;16450;50.288;10.966;2024-02-16T07:11:25;15.20;;;10.87;;
29500;SDS011;16450;50.288;10.966;2024-02-16T07:14:27;13.53;;;8.73;;
29500;SDS011;16450;50.288;10.966;2024-02-16T07:17:28;11.67;;;8.40;;
29500;SDS011;16450;50.288;10.966;2024-02-16T07:20:30;12.97;;;8.33;;
29500;SDS011;16450;50.288;10.966;2024-02-16T07:23:32;14.37;;;7.87;;
29500;SDS011;16450;50.288;10.966;2024-02-16T07:26:34;11.73;;;8.30;;
29500;SDS011;16450;50.288;10.966;2024-02-16T07:29:37;12.73;;;8.03;;
29500;SDS011;16450;50.288;10.966;2024-02-16T07:32:40;11.90;;;8.50;;
29500;SDS011;16450;50.288;10.966;2024-02-16T07:35:42;16.03;;;8.43;;
29500;SDS011;16450;50.288;10.966;2024-02-16T07:38:45;12.40;;;8.53;;
29500;SDS011;16450;50.288;10.966;2024-02-16T07:41:47;10.93;;;7.80;;
29500;SDS011;16450;50.288;10.966;2024-02-16T07:44:50;14.40;;;8.23;;
29500;SDS011;16450;50.288;10.966;2024-02-16T07:47:54;14.00;;;7.90;;
29500;SDS011;16450;50.288;10.966;2024-02-16T07:50:57;14.90;;;8.40;;
29500;SDS011;16450;50.288;10.966;2024-02-16T07:54:00;10.37;;;7.40;;
29500;SDS011;16450;50.288;10.966;2024-02-16T07:57:03;14.27;;;7.53;;
29500;SDS011;16450;50.288;10.966;2024-02-16T08:00:05;12.20;;;7.80;;
29500;SDS011;16450;50.288;10.966;2024-02-16T08:03:08;10.97;;;7.37;;
29500;SDS011;16450;50.288;10.966;2024-02-16T08:06:10;11.07;;;7.23;;
29500;SDS011;16450;50.288;10.966;2024-02-16T08:09:12;12.30;;;7.47;;
29500;SDS011;16450;50.288;10.966;2024-02-16T08:12:14;12.83;;;8.40;;
29500;SDS011;16450;50.288;10.966;2024-02-16T08:15:16;13.80;;;8.17;;
29500;SDS011;16450;50.288;10.966;2024-02-16T08:18:24;11.77;;;8.27;;
29500;SDS011;16450;50.288;10.966;2024-02-16T08:21:26;15.57;;;9.13;;
29500;SDS011;16450;50.288;10.966;2024-02-16T08:24:28;15.00;;;8.53;;
29500;SDS011;16450;50.288;10.966;2024-02-16T08:27:31;12.27;;;8.50;;
29500;SDS011;16450;50.288;10.966;2024-02-16T08:30:33;15.13;;;8.57;;
29500;SDS011;16450;50.288;10.966;2024-02-16T08:33:37;15.03;;;8.93;;
29500;SDS011;16450;50.288;10.966;2024-02-16T08:36:44;12.13;;;9.03;;
29500;SDS011;16450;50.288;10.966;2024-02-16T08:39:46;14.73;;;8.73;;
29500;SDS011;16450;50.288;10.966;2024-02-16T08:42:48;13.73;;;8.63;;
29500;SDS011;16450;50.288;10.966;2024-02-16T08:45:50;11.83;;;8.57;;
29500;SDS011;16450;50.288;10.966;2024-02-16T08:48:52;15.43;;;8.53;;
29500;SDS011;16450;50.288;10.966;2024-02-16T08:51:54;15.60;;;8.83;;
29500;SDS011;16450;50.288;10.966;2024-02-16T08:54:56;13.40;;;9.23;;
29500;SDS011;16450;50.288;10.966;2024-02-16T08:57:58;14.83;;;9.40;;
29500;SDS011;16450;50.288;10.966;2024-02-16T09:01:00;13.63;;;8.37;;
29500;SDS011;16450;50.288;10.966;2024-02-16T09:04:02;12.93;;;8.60;;
29500;SDS011;16450;50.288;10.966;2024-02-16T09:07:04;14.23;;;8.67;;
29500;SDS011;16450;50.288;10.966;2024-02-16T09:10:06;13.10;;;8.50;;
29500;SDS011;16450;50.288;10.966;2024-02-16T09:13:09;12.60;;;7.43;;
29500;SDS011;16450;50.288;10.966;2024-02-16T09:16:11;11.83;;;7.47;;
29500;SDS011;16450;50.288;10.966;2024-02-16T09:19:13;11.20;;;7.53;;
29500;SDS011;16450;50.288;10.966;2024-02-16T09:22:14;12.67;;;7.50;;
29500;SDS011;16450;50.288;10.966;2024-02-16T09:25:16;10.57;;;7.70;;
29500;SDS011;16450;50.288;10.966;2024-02-16T09:28:18;10.90;;;7.40;;
29500;SDS011;16450;50.288;10.966;2024-02-16T09:31:29;11.00;;;7.50;;
29500;SDS011;16450;50.288;10.966;2024-02-16T09:34:31;12.30;;;7.43;;
29500;SDS011;16450;50.288;10.966;2024-02-16T09:37:34;9.97;;;6.80;;
29500;SDS011;16450;50.288;10.966;2024-02-16T09:40:37;11.60;;;7.93;;
29500;SDS011;16450;50.288;10.966;2024-02-16T09:43:39;9.17;;;6.93;;
29500;SDS011;16450;50.288;10.966;2024-02-16T09:46:41;11.67;;;7.80;;
29500;SDS011;16450;50.288;10.966;2024-02-16T09:49:43;12.00;;;7.87;;
29500;SDS011;16450;50.288;10.966;2024-02-16T09:52:49;10.87;;;7.87;;
29500;SDS011;16450;50.288;10.966;2024-02-16T09:55:52;11.13;;;7.43;;
29500;SDS011;16450;50.288;10.966;2024-02-16T09:58:54;10.83;;;7.37;;
29500;SDS011;16450;50.288;10.966;2024-02-16T10:02:02;8.37;;;6.70;;
29500;SDS011;16450;50.288;10.966;2024-02-16T10:05:09;9.97;;;6.83;;
29500;SDS011;16450;50.288;10.966;2024-02-16T10:08:22;12.33;;;7.27;;
29500;SDS011;16450;50.288;10.966;2024-02-16T10:11:24;12.37;;;6.93;;
29500;SDS011;16450;50.288;10.966;2024-02-16T10:14:30;11.07;;;6.50;;
29500;SDS011;16450;50.288;10.966;2024-02-16T10:17:33;9.83;;;6.77;;
29500;SDS011;16450;50.288;10.966;2024-02-16T10:20:35;9.00;;;6.57;;
29500;SDS011;16450;50.288;10.966;2024-02-16T10:23:39;9.23;;;6.50;;
29500;SDS011;16450;50.288;10.966;2024-02-16T10:26:44;11.17;;;7.60;;
29500;SDS011;16450;50.288;10.966;2024-02-16T10:29:47;10.07;;;7.10;;
29500;SDS011;16450;50.288;10.966;2024-02-16T10:32:52;12.23;;;7.20;;
29500;SDS011;16450;50.288;10.966;2024-02-16T10:35:55;10.47;;;6.97;;
29500;SDS011;16450;50.288;10.966;2024-02-16T10:39:02;14.77;;;8.10;;
29500;SDS011;16450;50.288;10.966;2024-02-16T10:42:13;12.40;;;6.83;;
29500;SDS011;16450;50.288;10.966;2024-02-16T10:45:16;11.60;;;7.37;;
29500;SDS011;16450;50.288;10.966;2024-02-16T10:48:19;11.90;;;7.20;;
29500;SDS011;16450;50.288;10.966;2024-02-16T10:52:04;10.77;;;7.17;;
29500;SDS011;16450;50.288;10.966;2024-02-16T10:54:47;12.97;;;7.33;;
29500;SDS011;16450;50.288;10.966;2024-02-16T10:57:49;10.93;;;7.10;;
29500;SDS011;16450;50.288;10.966;2024-02-16T11:00:52;9.13;;;6.57;;
29500;SDS011;16450;50.288;10.966;2024-02-16T11:04:01;11.30;;;6.90;;
29500;SDS011;16450;50.288;10.966;2024-02-16T11:07:38;10.50;;;7.13;;
29500;SDS011;16450;50.288;10.966;2024-02-16T11:10:33;11.67;;;7.27;;
29500;SDS011;16450;50.288;10.966;2024-02-16T11:13:35;11.37;;;7.17;;
29500;SDS011;16450;50.288;10.966;2024-02-16T11:16:43;9.37;;;6.87;;
29500;SDS011;16450;50.288;10.966;2024-02-16T11:19:48;10.87;;;7.00;;
29500;SDS011;16450;50.288;10.966;2024-02-16T11:22:51;11.70;;;6.57;;
29500;SDS011;16450;50.288;10.966;2024-02-16T11:25:54;11.70;;;7.80;;
29500;SDS011;16450;50.288;10.966;2024-02-16T11:29:05;14.87;;;8.37;;
29500;SDS011;16450;50.288;10.966;2024-02-16T11:32:07;13.67;;;8.33;;
29500;SDS011;16450;50.288;10.966;2024-02-16T11:35:09;10.80;;;7.00;;
29500;SDS011;16450;50.288;10.966;2024-02-16T11:38:12;10.20;;;7.00;;
29500;SDS011;16450;50.288;10.966;2024-02-16T11:41:14;9.93;;;6.87;;
29500;SDS011;16450;50.288;10.966;2024-02-16T11:44:16;11.37;;;6.50;;
29500;SDS011;16450;50.288;10.966;2024-02-16T11:47:19;8.83;;;6.43;;
29500;SDS011;16450;50.288;10.966;2024-02-16T11:50:26;9.07;;;6.00;;
29500;SDS011;16450;50.288;10.966;2024-02-16T11:53:28;9.67;;;6.17;;
29500;SDS011;16450;50.288;10.966;2024-02-16T11:56:31;8.47;;;5.70;;
29500;SDS011;16450;50.288;10.966;2024-02-16T11:59:33;9.97;;;6.37;;
29500;SDS011;16450;50.288;10.966;2024-02-16T12:02:35;10.77;;;6.53;;
29500;SDS011;16450;50.288;10.966;2024-02-16T12:05:38;8.67;;;6.70;;
29500;SDS011;16450;50.288;10.966;2024-02-16T12:08:40;11.23;;;6.53;;
29500;SDS011;16450;50.288;10.966;2024-02-16T12:11:42;9.50;;;6.57;;
29500;SDS011;16450;50.288;10.966;2024-02-16T12:14:44;12.27;;;6.60;;
29500;SDS011;16450;50.288;10.966;2024-02-16T12:17:46;9.40;;;6.20;;
29500;SDS011;16450;50.288;10.966;2024-02-16T12:23:59;12.13;;;7.30;;
29500;SDS011;16450;50.288;10.966;2024-02-16T12:27:03;9.77;;;6.20;;
29500;SDS011;16450;50.288;10.966;2024-02-16T12:30:05;8.53;;;5.90;;
29500;SDS011;16450;50.288;10.966;2024-02-16T12:33:08;9.93;;;6.20;;
29500;SDS011;16450;50.288;10.966;2024-02-16T12:36:10;10.47;;;6.30;;
29500;SDS011;16450;50.288;10.966;2024-02-16T12:39:12;7.97;;;5.87;;
29500;SDS011;16450;50.288;10.966;2024-02-16T12:42:16;10.20;;;6.20;;
29500;SDS011;16450;50.288;10.966;2024-02-16T12:45:18;7.90;;;5.93;;
29500;SDS011;16450;50.288;10.966;2024-02-16T12:48:21;8.83;;;6.57;;
29500;SDS011;16450;50.288;10.966;2024-02-16T12:51:23;11.20;;;6.47;;
29500;SDS011;16450;50.288;10.966;2024-02-16T12:54:25;11.90;;;6.50;;
29500;SDS011;16450;50.288;10.966;2024-02-16T12:57:28;8.50;;;6.20;;
29500;SDS011;16450;50.288;10.966;2024-02-16T13:00:30;8.80;;;6.37;;
29500;SDS011;16450;50.288;10.966;2024-02-16T13:03:36;9.43;;;6.10;;
29500;SDS011;16450;50.288;10.966;2024-02-16T13:06:38;9.93;;;6.40;;
29500;SDS011;16450;50.288;10.966;2024-02-16T13:09:40;7.93;;;5.67;;
29500;SDS011;16450;50.288;10.966;2024-02-16T13:12:43;7.67;;;5.37;;
29500;SDS011;16450;50.288;10.966;2024-02-16T13:15:45;10.53;;;6.60;;
29500;SDS011;16450;50.288;10.966;2024-02-16T13:18:48;9.30;;;6.30;;
29500;SDS011;16450;50.288;10.966;2024-02-16T13:21:50;9.00;;;6.27;;
29500;SDS011;16450;50.288;10.966;2024-02-16T13:24:52;9.77;;;6.60;;
29500;SDS011;16450;50.288;10.966;2024-02-16T13:27:54;9.90;;;6.40;;
29500;SDS011;16450;50.288;10.966;2024-02-16T13:30:56;10.13;;;6.57;;
29500;SDS011;16450;50.288;10.966;2024-02-16T13:33:59;9.80;;;5.50;;
29500;SDS011;16450;50.288;10.966;2024-02-16T13:37:02;9.83;;;6.60;;
29500;SDS011;16450;50.288;10.966;2024-02-16T13:40:04;9.77;;;6.53;;
29500;SDS011;16450;50.288;10.966;2024-02-16T13:43:08;10.70;;;6.50;;
29500;SDS011;16450;50.288;10.966;2024-02-16T13:46:11;8.97;;;5.83;;
29500;SDS011;16450;50.288;10.966;2024-02-16T13:49:13;9.90;;;5.93;;
29500;SDS011;16450;50.288;10.966;2024-02-16T13:52:16;7.37;;;5.63;;
29500;SDS011;16450;50.288;10.966;2024-02-16T13:55:18;11.90;;;6.53;;
29500;SDS011;16450;50.288;10.966;2024-02-16T13:58:19;8.93;;;5.90;;
29500;SDS011;16450;50.288;10.966;2024-02-16T14:01:21;10.33;;;5.73;;
29500;SDS011;16450;50.288;10.966;2024-02-16T14:04:23;10.97;;;6.67;;
29500;SDS011;16450;50.288;10.966;2024-02-16T14:07:28;9.77;;;6.03;;
29500;SDS011;16450;50.288;10.966;2024-02-16T14:10:35;8.50;;;5.60;;
29500;SDS011;16450;50.288;10.966;2024-02-16T14:13:38;7.97;;;5.60;;
29500;SDS011;16450;50.288;10.966;2024-02-16T14:16:40;8.23;;;6.00;;
29500;SDS011;16450;50.288;10.966;2024-02-16T14:19:41;6.90;;;5.50;;
29500;SDS011;16450;50.288;10.966;2024-02-16T14:22:43;11.20;;;5.20;;
29500;SDS011;16450;50.288;10.966;2024-02-16T14:25:45;10.07;;;5.50;;
29500;SDS011;16450;50.288;10.966;2024-02-16T14:28:48;11.27;;;5.80;;
29500;SDS011;16450;50.288;10.966;2024-02-16T14:31:50;7.80;;;5.70;;
29500;SDS011;16450;50.288;10.966;2024-02-16T14:34:52;8.63;;;5.67;;
29500;SDS011;16450;50.288;10.966;2024-02-16T14:37:55;8.03;;;5.13;;
29500;SDS011;16450;50.288;10.966;2024-02-16T14:40:57;8.93;;;5.77;;
29500;SDS011;16450;50.288;10.966;2024-02-16T14:43:59;8.67;;;5.37;;
29500;SDS011;16450;50.288;10.966;2024-02-16T14:47:02;8.47;;;5.23;;
29500;SDS011;16450;50.288;10.966;2024-02-16T14:50:04;7.27;;;5.57;;
29500;SDS011;16450;50.288;10.966;2024-02-16T14:53:09;7.20;;;5.20;;
29500;SDS011;16450;50.288;10.966;2024-02-16T14:56:11;6.03;;;4.47;;
29500;SDS011;16450;50.288;10.966;2024-02-16T14:59:13;5.67;;;4.27;;
29500;SDS011;16450;50.288;10.966;2024-02-16T15:02:15;7.20;;;4.97;;
29500;SDS011;16450;50.288;10.966;2024-02-16T15:05:17;7.87;;;4.37;;
29500;SDS011;16450;50.288;10.966;2024-02-16T15:08:19;6.17;;;4.60;;
29500;SDS011;16450;50.288;10.966;2024-02-16T15:11:21;7.90;;;4.97;;
29500;SDS011;16450;50.288;10.966;2024-02-16T15:14:23;7.37;;;5.00;;
29500;SDS011;16450;50.288;10.966;2024-02-16T15:17:25;8.50;;;4.43;;
29500;SDS011;16450;50.288;10.966;2024-02-16T15:20:27;6.43;;;4.40;;
29500;SDS011;16450;50.288;10.966;2024-02-16T15:23:29;6.73;;;3.93;;
29500;SDS011;16450;50.288;10.966;2024-02-16T15:26:30;6.87;;;4.03;;
29500;SDS011;16450;50.288;10.966;2024-02-16T15:29:33;7.53;;;4.60;;
29500;SDS011;16450;50.288;10.966;2024-02-16T15:32:34;7.93;;;3.93;;
29500;SDS011;16450;50.288;10.966;2024-02-16T15:35:36;5.60;;;3.83;;
29500;SDS011;16450;50.288;10.966;2024-02-16T15:38:38;6.23;;;3.70;;
29500;SDS011;16450;50.288;10.966;2024-02-16T15:41:40;7.37;;;4.17;;
29500;SDS011;16450;50.288;10.966;2024-02-16T15:44:42;6.17;;;4.07;;
29500;SDS011;16450;50.288;10.966;2024-02-16T15:47:44;6.20;;;4.20;;
29500;SDS011;16450;50.288;10.966;2024-02-16T15:50:46;7.17;;;4.13;;
29500;SDS011;16450;50.288;10.966;2024-02-16T15:53:51;8.47;;;4.27;;
29500;SDS011;16450;50.288;10.966;2024-02-16T15:56:52;6.87;;;4.10;;
29500;SDS011;16450;50.288;10.966;2024-02-16T15:59:59;5.10;;;3.80;;
29500;SDS011;16450;50.288;10.966;2024-02-16T16:03:01;8.97;;;4.33;;
29500;SDS011;16450;50.288;10.966;2024-02-16T16:06:02;6.03;;;3.70;;
29500;SDS011;16450;50.288;10.966;2024-02-16T16:09:05;5.83;;;4.30;;
29500;SDS011;16450;50.288;10.966;2024-02-16T16:12:10;9.07;;;4.10;;
29500;SDS011;16450;50.288;10.966;2024-02-16T16:15:12;16.50;;;9.50;;
29500;SDS011;16450;50.288;10.966;2024-02-16T16:18:14;11.40;;;7.13;;
29500;SDS011;16450;50.288;10.966;2024-02-16T16:21:17;10.07;;;6.07;;
29500;SDS011;16450;50.288;10.966;2024-02-16T16:24:19;14.43;;;7.07;;
29500;SDS011;16450;50.288;10.966;2024-02-16T16:27:21;20.83;;;11.10;;
29500;SDS011;16450;50.288;10.966;2024-02-16T16:30:23;11.27;;;7.17;;
29500;SDS011;16450;50.288;10.966;2024-02-16T16:33:25;10.53;;;7.07;;
29500;SDS011;16450;50.288;10.966;2024-02-16T16:36:27;12.27;;;7.23;;
29500;SDS011;16450;50.288;10.966;2024-02-16T16:39:29;11.70;;;6.50;;
29500;SDS011;16450;50.288;10.966;2024-02-16T16:42:31;11.43;;;6.07;;
29500;SDS011;16450;50.288;10.966;2024-02-16T16:45:36;11.27;;;6.70;;
29500;SDS011;16450;50.288;10.966;2024-02-16T16:48:39;9.87;;;6.63;;
29500;SDS011;16450;50.288;10.966;2024-02-16T16:51:42;11.00;;;6.60;;
29500;SDS011;16450;50.288;10.966;2024-02-16T16:54:45;9.80;;;6.60;;
29500;SDS011;16450;50.288;10.966;2024-02-16T16:57:47;10.17;;;6.17;;
29500;SDS011;16450;50.288;10.966;2024-02-16T17:00:49;10.43;;;7.30;;
29500;SDS011;16450;50.288;10.966;2024-02-16T17:03:51;12.37;;;7.23;;
29500;SDS011;16450;50.288;10.966;2024-02-16T17:06:53;11.43;;;7.43;;
29500;SDS011;16450;50.288;10.966;2024-02-16T17:09:55;9.57;;;6.10;;
29500;SDS011;16450;50.288;10.966;2024-02-16T17:12:58;9.60;;;6.30;;
29500;SDS011;16450;50.288;10.966;2024-02-16T17:16:00;11.33;;;6.13;;
29500;SDS011;16450;50.288;10.966;2024-02-16T17:19:02;11.73;;;6.50;;
29500;SDS011;16450;50.288;10.966;2024-02-16T17:22:05;11.07;;;6.57;;
29500;SDS011;16450;50.288;10.966;2024-02-16T17:25:07;12.20;;;7.00;;
29500;SDS011;16450;50.288;10.966;2024-02-16T17:28:09;9.43;;;6.07;;
29500;SDS011;16450;50.288;10.966;2024-02-16T17:31:12;12.33;;;7.00;;
29500;SDS011;16450;50.288;10.966;2024-02-16T17:34:14;15.47;;;8.73;;
29500;SDS011;16450;50.288;10.966;2024-02-16T17:37:16;22.87;;;14.20;;
29500;SDS011;16450;50.288;10.966;2024-02-16T17:40:18;32.97;;;19.37;;
29500;SDS011;16450;50.288;10.966;2024-02-16T17:43:20;37.57;;;22.07;;
29500;SDS011;16450;50.288;10.966;2024-02-16T17:46:22;29.30;;;18.50;;
29500;SDS011;16450;50.288;10.966;2024-02-16T17:49:24;23.57;;;14.33;;
29500;SDS011;16450;50.288;10.966;2024-02-16T17:52:29;25.40;;;16.07;;
29500;SDS011;16450;50.288;10.966;2024-02-16T17:55:31;27.93;;;18.57;;
29500;SDS011;16450;50.288;10.966;2024-02-16T17:58:33;32.73;;;20.63;;